createdAt,value
2022-08-20T00:00:40.041Z,22.33
2022-08-20T00:01:49.412Z,22.48
2022-08-20T00:02:58.962Z,22.72
2022-08-20T00:04:06.917Z,22.74
2022-08-20T00:05:15.753Z,22.74
2022-08-20T00:06:24.221Z,22.88
2022-08-20T00:07:32.626Z,22.77
2022-08-20T00:08:38.653Z,22.82
2022-08-20T00:09:44.863Z,22.81
2022-08-20T00:10:55.739Z,22.81
2022-08-20T00:12:04.519Z,22.22
2022-08-20T00:13:14.028Z,22.53
2022-08-20T00:14:26.210Z,22.27
2022-08-20T00:15:34.432Z,22.38
2022-08-20T00:16:43.594Z,22.22
2022-08-20T00:17:53.612Z,22.42
2022-08-20T00:19:02.110Z,22.55
2022-08-20T00:20:09.901Z,22.48
2022-08-20T00:21:20.245Z,22.38
2022-08-20T00:22:29.128Z,22.40
2022-08-20T00:23:40.779Z,22.47
2022-08-20T00:24:47.371Z,22.24
2022-08-20T00:25:55.981Z,22.28
2022-08-20T00:27:03.856Z,22.25
2022-08-20T00:28:10.304Z,22.23
2022-08-20T00:29:17.348Z,22.13
2022-08-20T00:30:28.183Z,21.98
2022-08-20T00:31:36.297Z,21.92
2022-08-20T00:33:00.322Z,21.97
2022-08-20T00:34:07.811Z,21.97
2022-08-20T00:35:16.919Z,22.11
2022-08-20T00:36:32.095Z,22.39
2022-08-20T00:37:41.839Z,22.67
2022-08-20T00:38:52.972Z,22.58
2022-08-20T00:39:59.910Z,22.73
2022-08-20T00:41:07.892Z,22.83
2022-08-20T00:42:13.762Z,22.82
2022-08-20T00:43:27.954Z,22.55
2022-08-20T00:44:34.191Z,22.62
2022-08-20T00:45:43.149Z,22.78
2022-08-20T00:46:49.262Z,23.09
2022-08-20T00:47:56.168Z,23.23
2022-08-20T00:49:06.471Z,23.01
2022-08-20T00:50:17.342Z,23.17
2022-08-20T00:51:27.826Z,23.77
2022-08-20T00:52:37.378Z,23.90
2022-08-20T00:53:43.742Z,23.94
2022-08-20T00:54:54.637Z,24.41
2022-08-20T00:56:01.616Z,24.44
2022-08-20T00:57:21.047Z,24.94
2022-08-20T00:58:28.543Z,24.91
2022-08-20T00:59:36.923Z,25.02
2022-08-20T01:00:47.317Z,25.20
2022-08-20T01:01:56.449Z,25.11
2022-08-20T01:03:03.404Z,25.33
2022-08-20T01:04:11.683Z,25.49
2022-08-20T01:05:17.959Z,25.56
2022-08-20T01:06:26.276Z,25.70
2022-08-20T01:07:36.392Z,25.73
2022-08-20T01:08:45.262Z,25.80
2022-08-20T01:09:59.129Z,25.81
2022-08-20T01:11:18.534Z,25.97
2022-08-20T01:12:27.256Z,26.37
2022-08-20T01:13:36.052Z,26.17
2022-08-20T01:14:47.321Z,26.18
2022-08-20T01:15:56.448Z,26.40
2022-08-20T01:17:06.891Z,26.60
2022-08-20T01:18:19.255Z,26.61
2022-08-20T01:19:32.605Z,26.88
2022-08-20T01:20:45.091Z,27.36
2022-08-20T01:21:53.029Z,27.34
2022-08-20T01:23:29.879Z,27.31
2022-08-20T01:24:39.779Z,27.55
2022-08-20T01:26:01.719Z,27.41
2022-08-20T01:27:10.658Z,27.29
2022-08-20T01:28:19.777Z,27.41
2022-08-20T01:29:27.226Z,27.58
2022-08-20T01:30:35.190Z,27.46
2022-08-20T01:31:43.246Z,27.79
2022-08-20T01:32:51.001Z,27.76
2022-08-20T01:34:02.183Z,27.83
2022-08-20T01:35:09.358Z,28.03
2022-08-20T01:36:18.087Z,28.06
2022-08-20T01:37:25.164Z,28.36
2022-08-20T01:38:41.243Z,28.54
2022-08-20T01:40:06.477Z,28.73
2022-08-20T01:41:28.898Z,28.84
2022-08-20T01:42:58.775Z,28.96
2022-08-20T01:44:13.412Z,28.89
2022-08-20T01:45:30.825Z,28.95
2022-08-20T01:46:44.060Z,29.04
2022-08-20T01:47:55.367Z,28.94
2022-08-20T01:49:21.074Z,29.01
2022-08-20T01:50:33.564Z,29.28
2022-08-20T01:51:45.255Z,29.48
2022-08-20T01:53:27.423Z,29.56
2022-08-20T01:54:36.388Z,29.70
2022-08-20T01:56:07.375Z,29.74
2022-08-20T01:57:23.559Z,30.07
2022-08-20T01:58:31.278Z,30.48
2022-08-20T01:59:39.936Z,30.51
2022-08-20T02:00:46.641Z,30.91
2022-08-20T02:01:57.239Z,30.97
2022-08-20T02:03:12.456Z,31.26
2022-08-20T02:04:54.407Z,31.51
2022-08-20T02:06:03.327Z,31.54
2022-08-20T02:07:18.561Z,31.82
2022-08-20T02:08:29.523Z,31.92
2022-08-20T02:09:42.092Z,31.82
2022-08-20T02:10:51.109Z,32.36
2022-08-20T02:12:03.896Z,32.79
2022-08-20T02:13:10.721Z,33.03
2022-08-20T02:14:19.339Z,32.96
2022-08-20T02:15:34.550Z,32.95
2022-08-20T02:16:54.451Z,33.12
2022-08-20T02:18:08.216Z,33.39
2022-08-20T02:19:59.659Z,33.62
2022-08-20T02:21:06.517Z,34.01
2022-08-20T02:22:24.896Z,34.57
2022-08-20T02:23:32.696Z,34.81
2022-08-20T02:24:39.995Z,34.98
2022-08-20T02:25:48.322Z,35.35
2022-08-20T02:26:56.050Z,35.69
2022-08-20T02:28:08.277Z,36.09
2022-08-20T02:29:15.509Z,36.33
2022-08-20T02:30:28.916Z,36.57
2022-08-20T02:31:37.325Z,36.60
2022-08-20T02:33:06.010Z,36.93
2022-08-20T02:34:22.179Z,36.96
2022-08-20T02:35:31.886Z,37.33
2022-08-20T02:36:44.243Z,37.45
2022-08-20T02:37:52.846Z,37.33
2022-08-20T02:39:00.205Z,37.60
2022-08-20T02:40:09.118Z,37.79
2022-08-20T02:41:16.842Z,38.09
2022-08-20T02:42:25.295Z,38.14
2022-08-20T02:43:35.465Z,38.34
2022-08-20T02:44:43.140Z,38.48
2022-08-20T02:45:53.750Z,38.80
2022-08-20T02:47:02.287Z,38.78
2022-08-20T02:48:08.901Z,39.18
2022-08-20T02:49:15.093Z,39.08
2022-08-20T02:50:23.844Z,39.05
2022-08-20T02:51:31.114Z,38.99
2022-08-20T02:52:39.770Z,39.35
2022-08-20T02:53:58.767Z,39.64
2022-08-20T02:55:18.886Z,39.69
2022-08-20T02:56:37.654Z,39.60
2022-08-20T02:57:54.576Z,39.73
2022-08-20T02:59:12.590Z,40.05
2022-08-20T03:00:29.162Z,40.39
2022-08-20T03:01:42.102Z,40.54
2022-08-20T03:02:50.700Z,40.73
2022-08-20T03:04:01.545Z,40.68
2022-08-20T03:05:09.429Z,40.77
2022-08-20T03:06:15.252Z,40.94
2022-08-20T03:07:21.278Z,41.09
2022-08-20T03:08:30.587Z,41.20
2022-08-20T03:09:37.882Z,41.36
2022-08-20T03:10:46.030Z,41.70
2022-08-20T03:11:55.515Z,41.78
2022-08-20T03:13:05.668Z,41.68
2022-08-20T03:14:12.648Z,41.91
2022-08-20T03:15:20.239Z,41.94
2022-08-20T03:16:29.337Z,41.83
2022-08-20T03:17:38.912Z,42.00
2022-08-20T03:18:47.887Z,42.42
2022-08-20T03:20:00.265Z,42.47
2022-08-20T03:21:09.910Z,42.24
2022-08-20T03:22:16.289Z,42.27
2022-08-20T03:23:23.578Z,42.20
2022-08-20T03:24:35.880Z,42.39
2022-08-20T03:25:49.062Z,42.33
2022-08-20T03:26:59.145Z,42.21
2022-08-20T03:28:07.866Z,42.32
2022-08-20T03:29:15.215Z,42.72
2022-08-20T03:30:26.666Z,42.66
2022-08-20T03:31:33.337Z,42.73
2022-08-20T03:32:40.544Z,42.54
2022-08-20T03:33:52.834Z,42.72
2022-08-20T03:35:01.636Z,42.18
2022-08-20T03:36:22.145Z,42.50
2022-08-20T03:37:39.452Z,42.53
2022-08-20T03:38:55.779Z,42.70
2022-08-20T03:40:06.203Z,42.53
2022-08-20T03:41:13.656Z,42.52
2022-08-20T03:42:21.383Z,43.06
2022-08-20T03:43:29.347Z,43.10
2022-08-20T03:44:38.043Z,43.20
2022-08-20T03:45:46.087Z,42.99
2022-08-20T03:46:53.511Z,42.85
2022-08-20T03:48:02.970Z,43.43
2022-08-20T03:49:09.612Z,43.25
2022-08-20T03:50:23.511Z,43.15
2022-08-20T03:51:31.578Z,42.96
2022-08-20T03:52:43.401Z,43.09
2022-08-20T03:53:51.445Z,43.69
2022-08-20T03:54:58.882Z,43.47
2022-08-20T03:56:06.573Z,43.58
2022-08-20T03:57:15.909Z,44.01
2022-08-20T03:58:29.939Z,46.27
2022-08-20T03:59:43.864Z,47.28
2022-08-20T04:00:52.587Z,48.05
2022-08-20T04:02:02.564Z,48.42
2022-08-20T04:03:10.749Z,49.07
2022-08-20T04:04:16.909Z,49.48
2022-08-20T04:05:22.903Z,49.90
2022-08-20T04:06:32.990Z,50.19
2022-08-20T04:07:41.792Z,50.45
2022-08-20T04:08:54.112Z,50.99
2022-08-20T04:10:01.770Z,51.68
2022-08-20T04:11:08.983Z,51.74
2022-08-20T04:12:15.198Z,52.38
2022-08-20T04:13:23.727Z,52.14
2022-08-20T04:14:33.111Z,52.03
2022-08-20T04:15:40.909Z,52.08
2022-08-20T04:16:49.047Z,52.47
2022-08-20T04:17:58.463Z,52.92
2022-08-20T04:19:06.828Z,52.77
2022-08-20T04:20:14.306Z,53.37
2022-08-20T04:21:21.098Z,53.20
2022-08-20T04:22:27.416Z,53.37
2022-08-20T04:23:37.205Z,53.51
2022-08-20T04:25:02.245Z,53.88
2022-08-20T04:26:18.107Z,54.20
2022-08-20T04:27:50.441Z,54.14
2022-08-20T04:29:00.806Z,54.35
2022-08-20T04:30:23.437Z,54.65
2022-08-20T04:31:35.038Z,54.52
2022-08-20T04:32:43.586Z,54.52
2022-08-20T04:33:53.049Z,54.26
2022-08-20T04:35:04.720Z,54.29
2022-08-20T04:36:41.465Z,54.25
2022-08-20T04:38:49.657Z,54.33
2022-08-20T04:40:37.301Z,54.28
2022-08-20T04:42:05.074Z,54.28
2022-08-20T04:43:13.038Z,54.10
2022-08-20T04:44:20.026Z,53.95
2022-08-20T04:45:27.122Z,53.76
2022-08-20T04:46:41.789Z,53.81
2022-08-20T04:47:56.115Z,53.84
2022-08-20T04:49:07.496Z,54.25
2022-08-20T04:50:14.065Z,54.50
2022-08-20T04:51:23.025Z,54.86
2022-08-20T04:52:42.184Z,55.01
2022-08-20T04:53:53.522Z,55.17
2022-08-20T04:55:03.302Z,54.96
2022-08-20T04:56:15.964Z,55.06
2022-08-20T04:57:29.351Z,55.33
2022-08-20T04:58:42.102Z,55.59
2022-08-20T04:59:49.700Z,55.44
2022-08-20T05:01:01.130Z,55.58
2022-08-20T05:02:19.926Z,55.88
2022-08-20T05:03:29.302Z,55.45
2022-08-20T05:04:39.742Z,55.70
2022-08-20T05:05:55.149Z,55.59
2022-08-20T05:07:23.995Z,56.49
2022-08-20T05:08:43.619Z,57.14
2022-08-20T05:09:53.413Z,57.25
2022-08-20T05:11:32.935Z,57.51
2022-08-20T05:12:32.734Z,57.23
2022-08-20T05:13:40.773Z,57.38
2022-08-20T05:14:51.709Z,57.69
2022-08-20T05:16:03.040Z,57.45
2022-08-20T05:17:16.679Z,57.41
2022-08-20T05:18:36.688Z,57.60
2022-08-20T05:19:47.743Z,57.94
2022-08-20T05:21:05.441Z,57.86
2022-08-20T05:22:19.444Z,57.80
2022-08-20T05:23:26.070Z,58.23
2022-08-20T05:24:33.543Z,58.58
2022-08-20T05:25:41.723Z,58.23
2022-08-20T05:26:51.784Z,58.60
2022-08-20T05:28:02.636Z,58.54
2022-08-20T05:29:09.842Z,58.97
2022-08-20T05:30:16.132Z,59.63
2022-08-20T05:31:33.343Z,59.53
2022-08-20T05:32:46.146Z,59.96
2022-08-20T05:33:52.860Z,59.89
2022-08-20T05:35:03.385Z,60.08
2022-08-20T05:36:10.409Z,60.25
2022-08-20T05:37:22.629Z,60.45
2022-08-20T05:38:33.445Z,60.57
2022-08-20T05:39:42.238Z,60.39
2022-08-20T05:40:52.907Z,60.23
2022-08-20T05:42:01.042Z,60.38
2022-08-20T05:43:09.194Z,60.48
2022-08-20T05:44:16.827Z,60.88
2022-08-20T05:45:22.835Z,60.88
2022-08-20T05:46:33.241Z,61.08
2022-08-20T05:47:47.279Z,61.29
2022-08-20T05:49:06.807Z,61.91
2022-08-20T05:50:19.892Z,61.79
2022-08-20T05:51:31.029Z,61.45
2022-08-20T05:52:39.867Z,61.23
2022-08-20T05:53:47.382Z,61.16
2022-08-20T05:54:56.633Z,61.28
2022-08-20T05:56:02.866Z,61.23
2022-08-20T05:57:11.251Z,61.18
2022-08-20T05:58:25.172Z,61.87
2022-08-20T05:59:31.218Z,62.22
2022-08-20T06:00:37.111Z,62.22
2022-08-20T06:01:43.091Z,62.06
2022-08-20T06:03:08.175Z,61.94
2022-08-20T06:04:36.198Z,62.08
2022-08-20T06:05:45.444Z,62.23
2022-08-20T06:06:55.124Z,62.61
2022-08-20T06:08:09.484Z,62.74
2022-08-20T06:09:30.885Z,63.20
2022-08-20T06:10:42.763Z,63.38
2022-08-20T06:11:51.701Z,63.36
2022-08-20T06:13:02.477Z,63.48
2022-08-20T06:14:12.453Z,63.27
2022-08-20T06:15:22.304Z,63.38
2022-08-20T06:16:31.224Z,63.44
2022-08-20T06:17:39.567Z,63.37
2022-08-20T06:18:49.725Z,63.89
2022-08-20T06:19:57.603Z,64.40
2022-08-20T06:21:05.128Z,64.22
2022-08-20T06:22:18.411Z,64.12
2022-08-20T06:23:56.513Z,63.85
2022-08-20T06:25:03.045Z,63.93
2022-08-20T06:26:12.235Z,63.93
2022-08-20T06:27:19.851Z,64.23
2022-08-20T06:28:26.955Z,63.74
2022-08-20T06:29:34.474Z,64.21
2022-08-20T06:30:44.813Z,63.83
2022-08-20T06:31:54.103Z,63.95
2022-08-20T06:33:02.675Z,63.90
2022-08-20T06:34:10.145Z,64.24
2022-08-20T06:35:20.100Z,64.34
2022-08-20T06:36:28.702Z,64.53
2022-08-20T06:37:37.603Z,64.61
2022-08-20T06:38:47.542Z,64.62
2022-08-20T06:39:55.048Z,64.68
2022-08-20T06:41:02.931Z,64.78
2022-08-20T06:42:11.307Z,64.96
2022-08-20T06:43:17.242Z,64.74
2022-08-20T06:44:23.525Z,64.59
2022-08-20T06:45:34.045Z,64.86
2022-08-20T06:46:41.972Z,65.16
2022-08-20T06:47:49.299Z,65.24
2022-08-20T06:48:59.584Z,65.27
2022-08-20T06:50:09.166Z,65.62
2022-08-20T06:51:15.273Z,65.54
2022-08-20T06:52:21.484Z,65.99
2022-08-20T06:53:50.977Z,66.52
2022-08-20T06:54:58.417Z,66.15
2022-08-20T06:56:07.414Z,65.77
2022-08-20T06:57:14.289Z,66.19
2022-08-20T06:58:36.307Z,66.28
2022-08-20T06:59:52.370Z,66.57
2022-08-20T07:01:09.401Z,66.58
2022-08-20T07:02:17.578Z,66.59
2022-08-20T07:03:23.735Z,66.44
2022-08-20T07:04:30.973Z,66.54
2022-08-20T07:05:45.136Z,66.78
2022-08-20T07:06:57.977Z,66.62
2022-08-20T07:08:03.616Z,66.49
2022-08-20T07:09:10.276Z,66.75
2022-08-20T07:10:16.250Z,67.00
2022-08-20T07:11:27.272Z,67.16
2022-08-20T07:12:36.926Z,67.21
2022-08-20T07:13:42.989Z,67.35
2022-08-20T07:14:49.341Z,67.55
2022-08-20T07:15:55.502Z,67.50
2022-08-20T07:17:04.385Z,67.25
2022-08-20T07:18:17.402Z,67.22
2022-08-20T07:19:38.572Z,67.20
2022-08-20T07:20:45.799Z,67.32
2022-08-20T07:21:51.799Z,68.09
2022-08-20T07:23:01.346Z,67.95
2022-08-20T07:24:07.398Z,68.06
2022-08-20T07:25:15.869Z,67.97
2022-08-20T07:26:22.109Z,68.46
2022-08-20T07:27:29.734Z,68.10
2022-08-20T07:28:35.931Z,67.90
2022-08-20T07:30:00.900Z,67.86
2022-08-20T07:31:27.111Z,67.71
2022-08-20T07:32:39.612Z,67.61
2022-08-20T07:33:53.846Z,67.84
2022-08-20T07:34:59.959Z,68.01
2022-08-20T07:36:06.302Z,68.24
2022-08-20T07:37:14.590Z,67.98
2022-08-20T07:38:25.663Z,67.97
2022-08-20T07:39:36.044Z,68.25
2022-08-20T07:40:43.666Z,68.60
2022-08-20T07:42:04.161Z,68.68
2022-08-20T07:43:11.409Z,68.29
2022-08-20T07:44:20.369Z,68.09
2022-08-20T07:45:26.694Z,67.81
2022-08-20T07:46:32.360Z,68.38
2022-08-20T07:47:39.889Z,68.58
2022-08-20T07:48:50.650Z,68.83
2022-08-20T07:49:57.043Z,68.92
2022-08-20T07:51:05.877Z,69.26
2022-08-20T07:52:12.101Z,68.99
2022-08-20T07:53:18.583Z,69.07
2022-08-20T07:54:24.695Z,69.12
2022-08-20T07:55:31.293Z,68.93
2022-08-20T07:56:36.963Z,68.73
2022-08-20T07:57:44.947Z,68.87
2022-08-20T07:58:52.786Z,68.78
2022-08-20T07:59:59.754Z,68.56
2022-08-20T08:01:12.331Z,68.63
2022-08-20T08:02:18.603Z,68.95
2022-08-20T08:03:40.587Z,69.05
2022-08-20T08:04:58.930Z,69.70
2022-08-20T08:06:08.777Z,69.67
2022-08-20T08:07:17.547Z,69.68
2022-08-20T08:08:24.475Z,69.37
2022-08-20T08:09:30.410Z,69.59
2022-08-20T08:10:37.316Z,69.53
2022-08-20T08:11:50.771Z,69.78
2022-08-20T08:13:03.478Z,69.43
2022-08-20T08:14:10.058Z,69.50
2022-08-20T08:15:18.277Z,69.65
2022-08-20T08:16:24.764Z,69.79
2022-08-20T08:17:32.360Z,70.20
2022-08-20T08:18:50.713Z,70.10
2022-08-20T08:19:58.110Z,69.94
2022-08-20T08:21:04.803Z,69.98
2022-08-20T08:22:13.126Z,69.86
2022-08-20T08:23:24.646Z,69.80
2022-08-20T08:24:38.450Z,69.84
2022-08-20T08:25:46.090Z,69.82
2022-08-20T08:26:53.018Z,70.36
2022-08-20T08:28:03.768Z,70.10
2022-08-20T08:29:09.949Z,70.25
2022-08-20T08:30:17.120Z,70.29
2022-08-20T08:31:23.152Z,70.18
2022-08-20T08:32:29.119Z,70.10
2022-08-20T08:33:35.593Z,70.37
2022-08-20T08:34:41.737Z,70.33
2022-08-20T08:35:48.640Z,70.14
2022-08-20T08:36:56.270Z,70.09
2022-08-20T08:38:03.598Z,70.11
2022-08-20T08:39:12.001Z,70.40
2022-08-20T08:40:18.200Z,70.99
2022-08-20T08:41:37.921Z,70.93
2022-08-20T08:42:47.590Z,70.85
2022-08-20T08:43:58.604Z,70.68
2022-08-20T08:45:09.075Z,70.62
2022-08-20T08:46:14.752Z,70.52
2022-08-20T08:47:27.403Z,70.65
2022-08-20T08:48:45.076Z,70.67
2022-08-20T08:49:52.630Z,70.74
2022-08-20T08:51:00.642Z,70.64
2022-08-20T08:52:30.257Z,70.54
2022-08-20T08:53:39.498Z,70.97
2022-08-20T08:54:51.828Z,70.80
2022-08-20T08:56:03.302Z,70.81
2022-08-20T08:57:12.029Z,70.55
2022-08-20T08:58:18.801Z,70.68
2022-08-20T08:59:28.577Z,70.94
2022-08-20T09:00:57.607Z,71.41
2022-08-20T09:02:12.158Z,72.04
2022-08-20T09:03:22.551Z,72.23
2022-08-20T09:04:35.979Z,72.27
2022-08-20T09:05:56.249Z,72.56
2022-08-20T09:07:05.653Z,72.31
2022-08-20T09:08:17.199Z,72.29
2022-08-20T09:09:47.770Z,72.42
2022-08-20T09:10:54.869Z,72.04
2022-08-20T09:12:08.928Z,72.61
2022-08-20T09:13:14.927Z,72.49
2022-08-20T09:14:22.542Z,72.12
2022-08-20T09:15:28.606Z,72.02
2022-08-20T09:16:52.830Z,72.49
2022-08-20T09:18:00.944Z,72.21
2022-08-20T09:19:08.103Z,72.22
2022-08-20T09:20:14.094Z,72.35
2022-08-20T09:21:20.097Z,72.36
2022-08-20T09:22:28.701Z,72.49
2022-08-20T09:23:37.096Z,72.51
2022-08-20T09:24:43.563Z,72.67
2022-08-20T09:25:50.932Z,72.50
2022-08-20T09:26:57.169Z,72.34
2022-08-20T09:28:06.439Z,72.43
2022-08-20T09:29:13.748Z,72.49
2022-08-20T09:30:22.148Z,72.32
2022-08-20T09:31:32.521Z,72.27
2022-08-20T09:32:39.131Z,72.33
2022-08-20T09:33:47.873Z,72.50
2022-08-20T09:34:58.782Z,72.51
2022-08-20T09:36:28.766Z,72.83
2022-08-20T09:37:37.855Z,72.72
2022-08-20T09:38:43.948Z,72.77
2022-08-20T09:39:51.557Z,72.83
2022-08-20T09:40:57.574Z,72.82
2022-08-20T09:42:14.224Z,73.06
2022-08-20T09:43:20.725Z,72.80
2022-08-20T09:44:26.916Z,72.86
2022-08-20T09:45:36.579Z,72.99
2022-08-20T09:46:44.187Z,72.81
2022-08-20T09:47:56.510Z,72.69
2022-08-20T09:49:10.392Z,72.34
2022-08-20T09:50:20.340Z,72.28
2022-08-20T09:51:33.728Z,72.53
2022-08-20T09:52:47.159Z,72.69
2022-08-20T09:53:57.284Z,72.72
2022-08-20T09:55:29.350Z,72.99
2022-08-20T09:56:36.418Z,73.17
2022-08-20T09:57:42.727Z,73.05
2022-08-20T09:58:50.233Z,73.15
2022-08-20T10:00:05.484Z,73.07
2022-08-20T10:01:19.214Z,73.07
2022-08-20T10:02:26.136Z,73.09
2022-08-20T10:03:33.537Z,73.31
2022-08-20T10:04:49.660Z,73.33
2022-08-20T10:05:56.982Z,73.18
2022-08-20T10:07:03.115Z,73.17
2022-08-20T10:08:10.921Z,73.21
2022-08-20T10:09:18.321Z,73.22
2022-08-20T10:10:25.859Z,73.12
2022-08-20T10:11:31.529Z,73.11
2022-08-20T10:12:38.041Z,73.04
2022-08-20T10:13:44.089Z,72.97
2022-08-20T10:14:50.171Z,73.19
2022-08-20T10:15:56.631Z,73.27
2022-08-20T10:17:02.899Z,73.13
2022-08-20T10:18:10.454Z,73.13
2022-08-20T10:19:18.571Z,73.82
2022-08-20T10:20:25.972Z,73.63
2022-08-20T10:21:36.744Z,73.75
2022-08-20T10:22:45.968Z,73.65
2022-08-20T10:23:51.874Z,73.80
2022-08-20T10:24:58.848Z,73.91
2022-08-20T10:26:06.397Z,73.91
2022-08-20T10:27:12.442Z,74.18
2022-08-20T10:28:18.518Z,74.46
2022-08-20T10:29:26.195Z,74.58
2022-08-20T10:30:33.969Z,74.85
2022-08-20T10:31:40.177Z,74.94
2022-08-20T10:32:45.974Z,74.93
2022-08-20T10:33:53.528Z,74.80
2022-08-20T10:35:01.045Z,75.00
2022-08-20T10:36:16.028Z,74.95
2022-08-20T10:37:24.377Z,75.00
2022-08-20T10:38:34.368Z,75.11
2022-08-20T10:39:43.154Z,74.99
2022-08-20T10:40:52.493Z,75.00
2022-08-20T10:42:00.959Z,75.28
2022-08-20T10:43:06.999Z,75.29
2022-08-20T10:44:13.125Z,75.06
2022-08-20T10:45:19.179Z,74.80
2022-08-20T10:46:25.302Z,74.79
2022-08-20T10:47:32.914Z,74.88
2022-08-20T10:48:40.704Z,74.72
2022-08-20T10:49:51.082Z,74.57
2022-08-20T10:50:56.606Z,74.68
2022-08-20T10:52:02.615Z,74.82
2022-08-20T10:53:13.553Z,74.84
2022-08-20T10:54:22.188Z,75.13
2022-08-20T10:55:28.734Z,75.37
2022-08-20T10:56:35.298Z,75.47
2022-08-20T10:57:43.351Z,75.67
2022-08-20T10:58:49.670Z,75.89
2022-08-20T10:59:58.001Z,75.99
2022-08-20T11:01:04.774Z,76.17
2022-08-20T11:02:12.479Z,76.19
2022-08-20T11:03:18.475Z,76.16
2022-08-20T11:04:24.505Z,76.04
2022-08-20T11:05:30.184Z,75.95
2022-08-20T11:06:36.062Z,76.13
2022-08-20T11:08:00.233Z,76.14
2022-08-20T11:09:07.327Z,76.33
2022-08-20T11:10:18.410Z,76.57
2022-08-20T11:11:24.369Z,76.54
2022-08-20T11:12:30.433Z,76.80
2022-08-20T11:13:36.570Z,76.50
2022-08-20T11:14:46.166Z,76.15
2022-08-20T11:15:53.003Z,76.09
2022-08-20T11:16:59.787Z,76.93
2022-08-20T11:18:07.716Z,76.70
2022-08-20T11:19:15.449Z,76.65
2022-08-20T11:20:24.116Z,76.17
2022-08-20T11:21:31.408Z,75.90
2022-08-20T11:22:37.428Z,75.78
2022-08-20T11:23:43.270Z,75.73
2022-08-20T11:24:49.542Z,75.98
2022-08-20T11:25:56.587Z,75.98
2022-08-20T11:27:04.526Z,75.89
2022-08-20T11:28:14.333Z,76.38
2022-08-20T11:29:23.228Z,76.37
2022-08-20T11:30:34.106Z,76.05
2022-08-20T11:31:41.380Z,76.07
2022-08-20T11:32:47.325Z,76.08
2022-08-20T11:33:53.254Z,76.08
2022-08-20T11:34:59.210Z,76.14
2022-08-20T11:36:08.201Z,76.14
2022-08-20T11:37:15.526Z,76.04
2022-08-20T11:38:22.729Z,75.90
2022-08-20T11:39:28.441Z,75.94
2022-08-20T11:40:34.492Z,75.89
2022-08-20T11:41:40.775Z,75.71
2022-08-20T11:43:13.763Z,75.69
2022-08-20T11:44:20.838Z,75.89
2022-08-20T11:45:27.763Z,75.98
2022-08-20T11:46:35.695Z,76.08
2022-08-20T11:47:41.861Z,76.18
2022-08-20T11:48:49.180Z,76.13
2022-08-20T11:50:23.229Z,76.18
2022-08-20T11:51:29.303Z,76.10
2022-08-20T11:52:35.179Z,76.08
2022-08-20T11:53:42.233Z,76.00
2022-08-20T11:54:51.803Z,76.17
2022-08-20T11:56:01.673Z,76.35
2022-08-20T11:57:10.034Z,76.53
2022-08-20T11:58:18.944Z,76.55
2022-08-20T11:59:26.560Z,76.63
2022-08-20T12:00:35.631Z,76.67
2022-08-20T12:01:46.508Z,76.54
2022-08-20T12:03:11.610Z,76.51
2022-08-20T12:04:19.573Z,76.45
2022-08-20T12:05:30.459Z,76.26
2022-08-20T12:06:36.820Z,76.28
2022-08-20T12:07:44.876Z,76.24
2022-08-20T12:08:52.114Z,76.28
2022-08-20T12:09:59.592Z,76.39
2022-08-20T12:11:12.359Z,76.40
2022-08-20T12:12:18.397Z,76.25
2022-08-20T12:13:30.658Z,76.23
2022-08-20T12:14:53.741Z,76.37
2022-08-20T12:16:02.229Z,76.16
2022-08-20T12:17:26.130Z,76.19
2022-08-20T12:18:32.966Z,76.00
2022-08-20T12:19:40.650Z,75.88
2022-08-20T12:20:50.742Z,75.80
2022-08-20T12:21:56.808Z,75.91
2022-08-20T12:23:03.178Z,75.86
2022-08-20T12:24:10.561Z,75.94
2022-08-20T12:25:16.774Z,76.13
2022-08-20T12:26:23.215Z,75.95
2022-08-20T12:27:31.404Z,75.82
2022-08-20T12:28:37.981Z,75.74
2022-08-20T12:29:44.471Z,75.70
2022-08-20T12:30:51.333Z,75.76
2022-08-20T12:31:57.301Z,75.69
2022-08-20T12:33:06.131Z,75.74
2022-08-20T12:34:12.599Z,75.78
2022-08-20T12:35:22.673Z,75.71
2022-08-20T12:36:31.580Z,75.85
2022-08-20T12:37:37.865Z,76.48
2022-08-20T12:38:43.680Z,76.26
2022-08-20T12:39:52.618Z,76.08
2022-08-20T12:40:59.178Z,76.26
2022-08-20T12:42:06.866Z,76.57
2022-08-20T12:43:15.762Z,76.68
2022-08-20T12:44:24.310Z,76.52
2022-08-20T12:45:30.946Z,76.38
2022-08-20T12:46:37.372Z,76.17
2022-08-20T12:47:46.064Z,76.01
2022-08-20T12:48:54.966Z,76.01
2022-08-20T12:50:06.152Z,76.03
2022-08-20T12:51:13.437Z,75.94
2022-08-20T12:52:22.559Z,75.82
2022-08-20T12:53:29.026Z,75.70
2022-08-20T12:54:34.676Z,75.63
2022-08-20T12:55:41.884Z,75.68
2022-08-20T12:56:50.150Z,75.73
2022-08-20T12:57:59.946Z,75.77
2022-08-20T12:59:07.348Z,75.92
2022-08-20T13:00:24.392Z,76.11
2022-08-20T13:01:31.775Z,76.20
2022-08-20T13:02:40.479Z,76.21
2022-08-20T13:03:47.089Z,76.32
2022-08-20T13:04:53.889Z,76.35
2022-08-20T13:06:04.531Z,76.50
2022-08-20T13:07:12.388Z,76.52
2022-08-20T13:08:19.842Z,76.59
2022-08-20T13:09:28.636Z,76.53
2022-08-20T13:10:36.646Z,76.59
2022-08-20T13:11:43.753Z,76.50
2022-08-20T13:12:50.350Z,76.50
2022-08-20T13:13:57.728Z,76.42
2022-08-20T13:15:03.712Z,76.32
2022-08-20T13:16:11.547Z,76.11
2022-08-20T13:17:18.991Z,75.98
2022-08-20T13:18:24.852Z,76.06
2022-08-20T13:19:34.479Z,76.08
2022-08-20T13:20:41.434Z,76.17
2022-08-20T13:21:54.810Z,76.23
2022-08-20T13:23:02.955Z,76.24
2022-08-20T13:24:10.519Z,76.30
2022-08-20T13:25:16.569Z,76.20
2022-08-20T13:26:22.493Z,76.33
2022-08-20T13:27:29.593Z,76.19
2022-08-20T13:28:36.911Z,76.13
2022-08-20T13:29:58.357Z,76.21
2022-08-20T13:31:10.210Z,76.16
2022-08-20T13:32:18.918Z,76.06
2022-08-20T13:33:28.715Z,75.91
2022-08-20T13:34:35.716Z,75.92
2022-08-20T13:35:42.921Z,75.77
2022-08-20T13:36:51.818Z,75.64
2022-08-20T13:37:58.429Z,75.63
2022-08-20T13:39:05.867Z,75.72
2022-08-20T13:40:12.257Z,75.66
2022-08-20T13:41:18.737Z,75.54
2022-08-20T13:42:25.928Z,75.44
2022-08-20T13:43:32.832Z,75.18
2022-08-20T13:44:42.242Z,75.07
2022-08-20T13:45:49.541Z,74.98
2022-08-20T13:46:57.369Z,74.85
2022-08-20T13:48:03.746Z,74.61
2022-08-20T13:49:12.909Z,74.37
2022-08-20T13:50:19.940Z,74.15
2022-08-20T13:51:27.687Z,73.88
2022-08-20T13:52:37.292Z,73.55
2022-08-20T13:53:43.586Z,73.28
2022-08-20T13:54:52.112Z,72.87
2022-08-20T13:56:00.451Z,72.60
2022-08-20T13:57:19.922Z,71.80
2022-08-20T13:58:25.743Z,71.66
2022-08-20T13:59:31.884Z,71.22
2022-08-20T14:00:38.844Z,70.82
2022-08-20T14:01:45.824Z,69.64
2022-08-20T14:02:51.928Z,69.50
2022-08-20T14:03:57.842Z,68.88
2022-08-20T14:05:07.891Z,68.46
2022-08-20T14:06:15.867Z,68.51
2022-08-20T14:07:32.442Z,68.22
2022-08-20T14:08:40.834Z,67.49
2022-08-20T14:09:49.723Z,66.44
2022-08-20T14:10:56.392Z,66.05
2022-08-20T14:12:04.457Z,65.91
2022-08-20T14:13:15.865Z,65.55
2022-08-20T14:14:21.807Z,65.05
2022-08-20T14:15:30.982Z,65.31
2022-08-20T14:16:36.976Z,65.02
2022-08-20T14:17:50.174Z,65.11
2022-08-20T14:18:57.516Z,65.51
2022-08-20T14:20:10.732Z,65.01
2022-08-20T14:21:16.952Z,64.57
2022-08-20T14:22:23.260Z,64.70
2022-08-20T14:23:31.270Z,64.63
2022-08-20T14:24:44.094Z,64.82
2022-08-20T14:25:51.520Z,65.15
2022-08-20T14:26:58.252Z,64.81
2022-08-20T14:28:15.295Z,64.44
2022-08-20T14:29:25.723Z,64.06
2022-08-20T14:30:32.832Z,63.83
2022-08-20T14:31:41.614Z,63.83
2022-08-20T14:32:48.000Z,62.99
2022-08-20T14:33:55.789Z,62.17
2022-08-20T14:35:04.603Z,61.91
2022-08-20T14:36:12.600Z,61.69
2022-08-20T14:37:31.172Z,61.57
2022-08-20T14:38:38.803Z,61.09
2022-08-20T14:39:49.081Z,60.61
2022-08-20T14:40:56.867Z,59.89
2022-08-20T14:42:04.677Z,59.50
2022-08-20T14:43:12.151Z,59.11
2022-08-20T14:44:18.923Z,58.24
2022-08-20T14:45:26.155Z,57.26
2022-08-20T14:46:33.894Z,56.65
2022-08-20T14:47:43.250Z,56.29
2022-08-20T14:48:53.348Z,55.70
2022-08-20T14:50:05.794Z,55.02
2022-08-20T14:51:14.685Z,55.15
2022-08-20T14:52:21.183Z,54.20
2022-08-20T14:53:28.915Z,53.66
2022-08-20T14:54:36.824Z,53.13
2022-08-20T14:55:43.921Z,52.99
2022-08-20T14:56:51.787Z,52.11
2022-08-20T14:57:59.605Z,52.25
2022-08-20T14:59:06.033Z,51.17
2022-08-20T15:00:14.617Z,51.08
2022-08-20T15:01:20.189Z,51.52
2022-08-20T15:02:26.468Z,51.75
2022-08-20T15:03:33.166Z,52.06
2022-08-20T15:04:41.508Z,51.98